| Record Date MM/DD/YYYY | Record Time HH:MM:SS | Record Julian Date NNN day of the year | Air Temperature Max (Degrees Fahrenheit F) | Time Max Air Temperature HH:MM:SS This is the time of max air temp for the prior hour interval listed for record [Time]. | Air Temperature Min (Degrees Fahrenheit F) | Time Min Air Temperature HH:MM:SS This is the time of min air temp for the prior hour interval listed for record [Time]. | Air Temperature Observed (Degrees Fahrenheit F) This is an instantaneous reading at the record [Time]. | Relative Humidity Max (Percent) | Time Max Relative Humidity HH:MM:SS This is the time of max relative humidity for the prior hour interval listed for record [Time]. | Relative Humidity Min (Percent) | Time Min Relative Humidity HH:MM:SS This is the time of min relative humidity for the prior hour interval listed for record [Time]. | Relative Humidity Observed (Percent) This is an instantaneous reading at the record [Time]. | Precipitation (Inches n.nn) rain fall that occurred during the prior hour interval listed for record [Time]. | Wind Speed (Miles Per Hour) Resultant Speed that occurred during the prior hour interval listed for record [Time]. | Wind Direction (Degrees) Resultant Direction that occurred during the prior hour interval listed for record [Time]. | Solar Radiation (Langley's) that occurred during the prior hour interval listed for record [Time]. | Soil Temperature Average at 2 inch depth (Degrees Fahrenheit F) that occurred during the prior hour interval listed for record [Time]. | Soil Temperature Observed at 2 inch depth (Degrees Fahrenheit F) This is an instantaneous reading at the record [Time]. | Soil Temperature Average at 4 inch depth (Degrees Fahrenheit F) that occurred during the prior hour interval listed for record [Time]. | Soil Temperature Observed at 4 inch depth (Degrees Fahrenheit F) This is an instantaneous reading at the record [Time]. |
|---|---|---|---|---|---|---|---|---|---|---|---|---|---|---|---|---|---|---|---|---|
| 08/26/2026 | 0:00:00 | 238 | 78 | 23:00:02 | 78 | 23:52:01 | 78 | 95 | 23:55:05 | 93 | 23:00:00 | 94.3 | 0 | 1.1 | 129 | 0 | 87 | 87 | 88 | 88 |
| 08/26/2026 | 1:00:00 | 238 | 78 | 0:01:01 | 77 | 0:20:01 | 78 | 95 | 0:30:04 | 94 | 0:13:01 | 94.5 | 0 | 1.1 | 162 | 0 | 86 | 86 | 88 | 88 |
| 08/26/2026 | 2:00:00 | 238 | 78 | 1:16:05 | 77 | 1:59:03 | 77 | 95 | 2:00:00 | 94 | 1:24:04 | 95.4 | 0 | 1.2 | 155 | 0 | 86 | 86 | 87 | 87 |
| 08/26/2026 | 3:00:00 | 238 | 77 | 2:00:00 | 75 | 2:56:01 | 75 | 97 | 2:58:00 | 95 | 2:16:05 | 97.3 | 0 | 0.8 | 142 | 0 | 85 | 85 | 87 | 87 |
| 08/26/2026 | 4:00:00 | 238 | 75 | 3:11:05 | 74 | 3:39:01 | 75 | 98 | 3:47:00 | 97 | 3:01:05 | 97.5 | 0 | 0.6 | 148 | 0 | 85 | 84 | 87 | 86 |
| 08/26/2026 | 5:00:00 | 238 | 75 | 4:00:01 | 74 | 4:32:05 | 74 | 98 | 4:59:04 | 97 | 4:11:01 | 98.1 | 0 | 0.4 | 173 | 0 | 84 | 84 | 86 | 86 |
| 08/26/2026 | 6:00:00 | 238 | 75 | 5:59:02 | 74 | 5:00:00 | 75 | 98 | 5:56:04 | 98 | 5:00:02 | 98.3 | 0 | 0.9 | 161 | 0 | 84 | 84 | 86 | 86 |
| 08/26/2026 | 7:00:00 | 238 | 80 | 6:59:05 | 75 | 6:00:02 | 80 | 98 | 6:07:00 | 91 | 7:00:00 | 90.8 | 0 | 1.7 | 163 | 6 | 84 | 84 | 85 | 85 |
| 08/26/2026 | 8:00:00 | 238 | 85 | 7:59:00 | 80 | 7:00:02 | 84 | 91 | 7:01:03 | 81 | 7:59:04 | 81.5 | 0 | 3.2 | 194 | 18 | 84 | 84 | 85 | 85 |
| 08/26/2026 | 9:00:00 | 238 | 88 | 8:59:02 | 83 | 8:15:01 | 88 | 84 | 8:16:05 | 75 | 8:59:04 | 75.97 | 0 | 4.9 | 248 | 35 | 85 | 85 | 85 | 85 |
| 08/26/2026 | 10:00:00 | 238 | 93 | 9:59:05 | 88 | 9:11:01 | 93 | 77 | 9:01:00 | 66 | 9:59:05 | 66.14 | 0 | 5.6 | 255 | 53 | 87 | 88 | 86 | 86 |
| 08/26/2026 | 11:00:00 | 238 | 97 | 10:34:02 | 92 | 10:03:02 | 96 | 67 | 10:00:03 | 58 | 10:34:03 | 61.11 | 0 | 5.2 | 237 | 63 | 90 | 91 | 87 | 88 |
| 08/26/2026 | 12:00:00 | 238 | 100 | 11:57:01 | 94 | 11:05:03 | 98 | 64 | 11:18:01 | 51 | 11:57:05 | 53.3 | 0 | 5.8 | 251 | 76 | 92 | 93 | 88 | 89 |
| 08/26/2026 | 13:00:00 | 238 | 100 | 12:23:00 | 97 | 12:30:03 | 98 | 58 | 12:04:05 | 44 | 12:59:05 | 44 | 0 | 5.3 | 236 | 68 | 95 | 96 | 90 | 91 |
| 08/26/2026 | 14:00:00 | 238 | 101 | 13:24:02 | 98 | 13:00:00 | 100 | 51 | 13:09:00 | 39 | 13:43:04 | 45.34 | 0 | 5.3 | 265 | 78 | 97 | 98 | 92 | 92 |
| 08/26/2026 | 15:00:00 | 238 | 101 | 14:56:03 | 97 | 14:15:05 | 100 | 49 | 14:15:02 | 36 | 14:36:00 | 38.76 | 0 | 4.3 | 306 | 54 | 98 | 98 | 93 | 93 |
| 08/26/2026 | 16:00:00 | 238 | 102 | 15:44:02 | 99 | 15:26:05 | 101 | 44 | 15:51:00 | 38 | 15:44:03 | 40.57 | 0 | 2.3 | 252 | 43 | 99 | 99 | 94 | 94 |
| 08/26/2026 | 17:00:00 | 238 | 101 | 16:08:00 | 99 | 16:48:01 | 99 | 48 | 17:00:00 | 40 | 16:01:00 | 48.06 | 0 | 2.4 | 267 | 35 | 99 | 99 | 95 | 95 |
| 08/26/2026 | 18:00:00 | 238 | 99 | 17:00:00 | 91 | 17:59:04 | 91 | 60 | 17:57:01 | 48 | 17:01:00 | 58.53 | 0 | 2.5 | 47 | 8 | 98 | 97 | 95 | 95 |
| 08/26/2026 | 19:00:00 | 238 | 91 | 18:01:01 | 74 | 18:55:01 | 75 | 96 | 18:52:03 | 58 | 18:00:04 | 86.8 | 0.37 | 6.3 | 9 | 1 | 96 | 95 | 95 | 94 |
| 08/26/2026 | 20:00:00 | 238 | 75 | 19:16:03 | 72 | 19:44:04 | 74 | 94 | 20:00:00 | 86 | 19:00:01 | 94.1 | 0.02 | 7.2 | 57 | 0 | 92 | 90 | 94 | 93 |
| 08/26/2026 | 21:00:00 | 238 | 76 | 20:05:01 | 73 | 20:13:00 | 74 | 98 | 20:38:02 | 87 | 20:04:05 | 97.4 | 0.97 | 7.7 | 25 | 0 | 88 | 87 | 92 | 91 |
| 08/26/2026 | 22:00:00 | 238 | 75 | 21:19:04 | 74 | 21:58:05 | 74 | 98 | 21:14:01 | 96 | 21:29:04 | 96.5 | 0.02 | 4.3 | 269 | 0 | 86 | 85 | 90 | 89 |
| 08/26/2026 | 23:00:00 | 238 | 74 | 22:16:03 | 73 | 22:58:03 | 73 | 97 | 22:07:01 | 95 | 22:34:00 | 96.1 | 0.03 | 3.5 | 218 | 0 | 85 | 84 | 88 | 88 |
| 08/27/2026 | 0:00:00 | 239 | 73 | 23:01:03 | 72 | 23:49:00 | 72 | 98 | 23:55:03 | 96 | 23:07:01 | 97.6 | 0.01 | 2.5 | 88 | 0 | 84 | 83 | 87 | 87 |
| 08/27/2026 | 1:00:00 | 239 | 73 | 0:43:00 | 72 | 0:00:00 | 73 | 99 | 0:56:05 | 97 | 0:13:05 | 98.6 | 0 | 2.7 | 72 | 0 | 83 | 83 | 87 | 86 |
| 08/27/2026 | 2:00:00 | 239 | 73 | 1:11:01 | 73 | 1:59:05 | 73 | 99 | 1:55:03 | 98 | 1:14:03 | 98.9 | 0 | 2.1 | 276 | 0 | 82 | 82 | 86 | 85 |
| 08/27/2026 | 3:00:00 | 239 | 73 | 2:24:00 | 72 | 2:53:00 | 72 | 99 | 2:24:01 | 99 | 2:00:01 | 99.3 | 0 | 2.3 | 301 | 0 | 82 | 82 | 85 | 85 |
| 08/27/2026 | 4:00:00 | 239 | 72 | 3:06:04 | 72 | 3:41:04 | 72 | 99 | 3:07:01 | 99 | 3:41:02 | 98.9 | 0 | 1.0 | 249 | 0 | 81 | 81 | 85 | 84 |
| 08/27/2026 | 5:00:00 | 239 | 72 | 4:45:01 | 72 | 4:08:03 | 72 | 99 | 4:43:02 | 99 | 4:00:03 | 99.3 | 0 | 0.5 | 177 | 0 | 81 | 81 | 84 | 84 |
| 08/27/2026 | 6:00:00 | 239 | 72 | 5:00:00 | 72 | 5:15:03 | 72 | 99 | 5:00:01 | 98 | 5:50:04 | 98.3 | 0.01 | 1.2 | 291 | 0 | 81 | 80 | 84 | 83 |
| 08/27/2026 | 7:00:00 | 239 | 74 | 6:58:05 | 72 | 6:08:01 | 73 | 99 | 6:30:03 | 96 | 6:57:00 | 96.3 | 0 | 0.9 | 304 | 4 | 80 | 80 | 83 | 83 |
| 08/27/2026 | 8:00:00 | 239 | 75 | 7:58:00 | 73 | 7:00:00 | 75 | 97 | 7:06:00 | 92 | 7:51:01 | 93.1 | 0 | 0.6 | 280 | 10 | 81 | 81 | 83 | 83 |
| 08/27/2026 | 9:00:00 | 239 | 77 | 8:55:03 | 75 | 8:00:04 | 77 | 94 | 8:05:02 | 89 | 8:56:05 | 90.4 | 0 | 0.9 | 338 | 17 | 82 | 82 | 83 | 83 |
| 08/27/2026 | 10:00:00 | 239 | 82 | 9:58:03 | 77 | 9:01:00 | 82 | 91 | 9:01:05 | 81 | 9:59:02 | 81.8 | 0 | 1.8 | 299 | 51 | 83 | 85 | 83 | 84 |
| 08/27/2026 | 11:00:00 | 239 | 85 | 10:57:02 | 81 | 10:05:04 | 84 | 84 | 10:07:01 | 77 | 10:42:00 | 79.6 | 0 | 3.0 | 16 | 61 | 86 | 88 | 84 | 85 |
| 08/27/2026 | 12:00:00 | 239 | 87 | 11:53:05 | 84 | 11:00:01 | 87 | 81 | 11:01:02 | 74 | 11:58:04 | 75.5 | 0 | 3.2 | 47 | 67 | 89 | 90 | 86 | 87 |
| 08/27/2026 | 13:00:00 | 239 | 90 | 12:52:01 | 86 | 12:01:02 | 90 | 78 | 12:14:01 | 70 | 12:53:05 | 74.06 | 0 | 2.6 | 34 | 73 | 91 | 92 | 87 | 88 |
| 08/27/2026 | 14:00:00 | 239 | 92 | 13:51:00 | 89 | 13:17:02 | 92 | 75 | 13:17:05 | 60 | 13:51:05 | 63.42 | 0 | 3.1 | 311 | 75 | 93 | 93 | 89 | 89 |
| 08/27/2026 | 15:00:00 | 239 | 93 | 15:00:00 | 90 | 14:20:04 | 93 | 67 | 14:23:02 | 54 | 14:53:05 | 57.01 | 0 | 3.9 | 347 | 56 | 93 | 93 | 90 | 90 |
| 08/27/2026 | 16:00:00 | 239 | 94 | 15:10:01 | 92 | 15:53:00 | 93 | 59 | 15:54:04 | 52 | 15:28:03 | 55.69 | 0 | 4.4 | 8 | 53 | 93 | 93 | 90 | 90 |
| 08/27/2026 | 17:00:00 | 239 | 93 | 16:14:05 | 92 | 16:58:02 | 92 | 62 | 16:59:02 | 54 | 16:02:00 | 60.62 | 0 | 4.0 | 31 | 34 | 93 | 92 | 90 | 90 |
| 08/27/2026 | 18:00:00 | 239 | 92 | 17:00:01 | 88 | 17:59:05 | 88 | 69 | 17:55:02 | 60 | 17:00:02 | 68.03 | 0 | 3.0 | 76 | 16 | 92 | 91 | 90 | 90 |
| 08/27/2026 | 19:00:00 | 239 | 88 | 18:01:05 | 82 | 18:59:05 | 82 | 87 | 19:00:00 | 67 | 18:00:03 | 87.1 | 0 | 1.0 | 105 | 2 | 90 | 89 | 90 | 90 |
| 08/27/2026 | 20:00:00 | 239 | 82 | 19:00:00 | 80 | 19:59:04 | 80 | 93 | 20:00:00 | 86 | 19:05:00 | 93.2 | 0 | 0.7 | 148 | 0 | 89 | 88 | 89 | 89 |
| 08/27/2026 | 21:00:00 | 239 | 80 | 20:00:00 | 78 | 20:56:03 | 78 | 95 | 20:46:04 | 91 | 20:03:02 | 93.9 | 0 | 0.3 | 86 | 0 | 87 | 86 | 89 | 88 |
| 08/27/2026 | 22:00:00 | 239 | 79 | 21:08:03 | 77 | 21:59:03 | 77 | 96 | 21:59:05 | 94 | 21:02:03 | 95.8 | 0 | 0.5 | 100 | 0 | 86 | 85 | 88 | 87 |
| 08/27/2026 | 23:00:00 | 239 | 77 | 22:01:04 | 77 | 22:47:02 | 77 | 97 | 22:57:03 | 93 | 22:27:04 | 95.9 | 0 | 0.7 | 73 | 0 | 85 | 85 | 87 | 87 |
| 08/28/2026 | 0:00:00 | 240 | 77 | 23:11:04 | 76 | 23:59:00 | 76 | 97 | 23:59:05 | 95 | 23:30:00 | 96.6 | 0 | 0.5 | 281 | 0 | 84 | 84 | 86 | 86 |
| 08/28/2026 | 1:00:00 | 240 | 76 | 0:00:01 | 76 | 0:16:03 | 76 | 98 | 0:35:00 | 97 | 0:01:03 | 97.7 | 0 | 1.0 | 46 | 0 | 84 | 83 | 86 | 86 |
| 08/28/2026 | 2:00:00 | 240 | 76 | 1:05:00 | 74 | 1:54:02 | 74 | 98 | 1:59:00 | 98 | 1:20:05 | 98.3 | 0 | 0.2 | 171 | 0 | 83 | 83 | 85 | 85 |
| 08/28/2026 | 3:00:00 | 240 | 77 | 2:41:03 | 74 | 2:03:02 | 76 | 99 | 2:12:04 | 94 | 2:41:05 | 94.3 | 0 | 2.8 | 48 | 0 | 82 | 82 | 85 | 85 |
| 08/28/2026 | 4:00:00 | 240 | 76 | 3:01:01 | 74 | 3:43:05 | 75 | 97 | 3:47:01 | 94 | 3:03:01 | 96.9 | 0 | 1.4 | 88 | 0 | 82 | 82 | 84 | 84 |
| 08/28/2026 | 5:00:00 | 240 | 75 | 4:07:03 | 74 | 4:58:05 | 74 | 98 | 4:50:04 | 97 | 4:16:03 | 97.7 | 0 | 0.6 | 63 | 0 | 81 | 81 | 84 | 84 |
| 08/28/2026 | 6:00:00 | 240 | 74 | 5:53:03 | 74 | 5:11:00 | 74 | 98 | 5:14:05 | 97 | 5:31:05 | 97.7 | 0 | 0.9 | 59 | 0 | 81 | 81 | 83 | 83 |
| 08/28/2026 | 7:00:00 | 240 | 76 | 6:41:03 | 74 | 6:00:02 | 76 | 98 | 6:01:03 | 91 | 6:57:01 | 91.3 | 0 | 3.6 | 18 | 4 | 81 | 81 | 83 | 83 |
| 08/28/2026 | 8:00:00 | 240 | 79 | 7:59:01 | 76 | 7:14:05 | 79 | 92 | 7:28:04 | 85 | 7:59:05 | 85.6 | 0 | 5.0 | 49 | 15 | 80 | 80 | 83 | 83 |
| 08/28/2026 | 9:00:00 | 240 | 84 | 8:51:02 | 78 | 8:16:00 | 84 | 88 | 8:17:00 | 76 | 8:59:05 | 75.84 | 0 | 4.6 | 58 | 33 | 81 | 81 | 83 | 83 |
| 08/28/2026 | 10:00:00 | 240 | 89 | 9:59:04 | 83 | 9:03:03 | 88 | 78 | 9:04:00 | 64 | 10:00:00 | 64.11 | 0 | 4.8 | 55 | 58 | 83 | 84 | 83 | 83 |
| 08/28/2026 | 11:00:00 | 240 | 91 | 10:59:04 | 88 | 10:00:05 | 91 | 68 | 10:05:04 | 59 | 10:57:00 | 59.77 | 0 | 4.7 | 46 | 70 | 86 | 88 | 84 | 85 |
| 08/28/2026 | 12:00:00 | 240 | 93 | 11:59:05 | 90 | 11:01:00 | 93 | 64 | 11:04:03 | 45 | 11:46:01 | 52.01 | 0 | 5.4 | 39 | 78 | 90 | 91 | 86 | 87 |
| 08/28/2026 | 13:00:00 | 240 | 94 | 12:33:00 | 91 | 12:49:03 | 93 | 57 | 12:38:00 | 48 | 12:57:04 | 50.92 | 0 | 4.8 | 48 | 75 | 93 | 94 | 88 | 89 |
| 08/28/2026 | 14:00:00 | 240 | 96 | 13:53:03 | 92 | 13:13:05 | 94 | 53 | 13:01:02 | 44 | 13:49:05 | 47.77 | 0 | 5.3 | 51 | 77 | 95 | 96 | 89 | 90 |
| 08/28/2026 | 15:00:00 | 240 | 96 | 14:06:05 | 93 | 14:54:01 | 94 | 50 | 14:11:00 | 43 | 14:36:03 | 44.44 | 0 | 4.4 | 13 | 63 | 97 | 97 | 91 | 92 |
| 08/28/2026 | 16:00:00 | 240 | 95 | 15:06:01 | 94 | 15:36:04 | 94 | 47 | 15:54:01 | 42 | 15:49:05 | 44.11 | 0 | 4.1 | 13 | 54 | 97 | 97 | 92 | 93 |
| 08/28/2026 | 17:00:00 | 240 | 94 | 16:04:01 | 92 | 16:59:05 | 92 | 47 | 16:00:05 | 42 | 16:23:04 | 44.07 | 0 | 4.8 | 23 | 37 | 97 | 96 | 93 | 93 |
| 08/28/2026 | 18:00:00 | 240 | 92 | 17:02:00 | 88 | 17:59:05 | 88 | 53 | 18:00:00 | 42 | 17:03:01 | 52.77 | 0 | 3.9 | 20 | 16 | 96 | 95 | 93 | 93 |
| 08/28/2026 | 19:00:00 | 240 | 88 | 18:00:00 | 81 | 18:59:04 | 81 | 63 | 18:59:05 | 52 | 18:01:00 | 63.3 | 0 | 3.0 | 19 | 2 | 93 | 92 | 93 | 92 |
| 08/28/2026 | 20:00:00 | 240 | 81 | 19:00:00 | 78 | 19:17:00 | 80 | 72 | 19:26:01 | 62 | 19:53:02 | 64.14 | 0 | 2.5 | 18 | 0 | 91 | 90 | 92 | 91 |
| 08/28/2026 | 21:00:00 | 240 | 80 | 20:00:00 | 76 | 20:43:05 | 79 | 73 | 20:37:01 | 64 | 20:11:00 | 65.04 | 0 | 2.9 | 24 | 0 | 89 | 88 | 90 | 90 |
| 08/28/2026 | 22:00:00 | 240 | 79 | 21:00:01 | 74 | 21:59:04 | 75 | 77 | 21:59:03 | 65 | 21:08:05 | 76.95 | 0 | 2.6 | 41 | 0 | 87 | 86 | 89 | 89 |
| 08/28/2026 | 23:00:00 | 240 | 74 | 22:00:00 | 71 | 22:59:02 | 71 | 88 | 22:59:04 | 77 | 22:07:01 | 88.3 | 0 | 1.4 | 49 | 0 | 85 | 85 | 88 | 88 |
| 08/29/2026 | 0:00:00 | 241 | 71 | 23:55:04 | 70 | 23:20:04 | 71 | 91 | 23:24:04 | 86 | 23:59:04 | 85.6 | 0 | 1.2 | 54 | 0 | 84 | 84 | 87 | 87 |
| 08/29/2026 | 1:00:00 | 241 | 71 | 0:01:00 | 68 | 0:59:00 | 68 | 90 | 0:58:04 | 85 | 0:01:03 | 90 | 0 | 1.8 | 36 | 0 | 83 | 82 | 86 | 86 |
| 08/29/2026 | 2:00:00 | 241 | 69 | 1:00:02 | 67 | 1:53:03 | 67 | 94 | 1:53:05 | 89 | 1:14:02 | 93.2 | 0 | 0.9 | 23 | 0 | 82 | 81 | 85 | 85 |
| 08/29/2026 | 3:00:00 | 241 | 68 | 2:20:05 | 66 | 2:59:01 | 66 | 95 | 3:00:00 | 92 | 2:22:02 | 95.2 | 0 | 0.6 | 40 | 0 | 81 | 80 | 84 | 84 |
| 08/29/2026 | 4:00:00 | 241 | 66 | 3:00:01 | 66 | 3:57:00 | 66 | 96 | 3:22:03 | 95 | 3:05:04 | 95.9 | 0 | 0.0 | 0 | 0 | 80 | 80 | 84 | 83 |
| 08/29/2026 | 5:00:00 | 241 | 66 | 4:15:05 | 64 | 4:48:05 | 65 | 98 | 4:55:03 | 96 | 4:00:03 | 97.1 | 0 | 0.4 | 109 | 0 | 79 | 79 | 83 | 83 |
| 08/29/2026 | 6:00:00 | 241 | 65 | 5:00:00 | 64 | 5:42:03 | 65 | 98 | 5:15:02 | 97 | 5:08:02 | 97.2 | 0 | 0.6 | 67 | 0 | 78 | 78 | 82 | 82 |
| 08/29/2026 | 7:00:00 | 241 | 72 | 6:59:04 | 65 | 6:00:00 | 72 | 98 | 6:02:01 | 87 | 6:56:03 | 87.5 | 0 | 0.6 | 51 | 10 | 78 | 78 | 82 | 81 |
| 08/29/2026 | 8:00:00 | 241 | 79 | 8:00:00 | 72 | 7:00:00 | 79 | 88 | 7:00:03 | 75 | 7:59:05 | 75.7 | 0 | 1.6 | 50 | 25 | 78 | 78 | 81 | 81 |
| 08/29/2026 | 9:00:00 | 241 | 84 | 8:59:05 | 79 | 8:00:00 | 84 | 76 | 8:02:00 | 67 | 8:47:03 | 67.81 | 0 | 0.3 | 62 | 43 | 79 | 80 | 81 | 81 |
| 08/29/2026 | 10:00:00 | 241 | 89 | 9:58:03 | 84 | 9:07:02 | 89 | 69 | 9:02:02 | 53 | 9:55:00 | 55.54 | 0 | 3.7 | 71 | 60 | 82 | 84 | 82 | 82 |
| 08/29/2026 | 11:00:00 | 241 | 92 | 10:48:03 | 89 | 10:05:03 | 92 | 55 | 10:04:01 | 44 | 10:51:03 | 44.16 | 0 | 3.8 | 38 | 72 | 86 | 87 | 83 | 84 |
| 08/29/2026 | 12:00:00 | 241 | 93 | 12:00:00 | 91 | 11:16:04 | 93 | 48 | 11:23:00 | 38 | 11:57:05 | 39.98 | 0 | 3.6 | 311 | 79 | 89 | 91 | 85 | 86 |
| 08/29/2026 | 13:00:00 | 241 | 94 | 12:50:03 | 92 | 12:27:02 | 92 | 44 | 12:14:03 | 38 | 12:44:02 | 40.1 | 0 | 3.3 | 296 | 81 | 92 | 94 | 87 | 88 |
| 08/29/2026 | 14:00:00 | 241 | 95 | 13:35:00 | 92 | 13:01:00 | 95 | 42 | 13:03:02 | 35 | 13:57:01 | 37.84 | 0 | 2.9 | 5 | 77 | 95 | 96 | 89 | 90 |
| 08/29/2026 | 15:00:00 | 241 | 95 | 14:58:03 | 93 | 14:49:03 | 95 | 42 | 14:03:04 | 35 | 14:58:05 | 37.45 | 0 | 3.9 | 64 | 68 | 96 | 97 | 91 | 91 |
| 08/29/2026 | 16:00:00 | 241 | 95 | 15:00:02 | 93 | 15:17:05 | 94 | 39 | 15:05:02 | 33 | 15:54:04 | 34.32 | 0 | 3.7 | 74 | 54 | 97 | 97 | 92 | 92 |
| 08/29/2026 | 17:00:00 | 241 | 94 | 16:53:02 | 93 | 16:32:03 | 94 | 37 | 17:00:00 | 33 | 16:18:00 | 36.99 | 0 | 2.0 | 56 | 34 | 97 | 96 | 93 | 93 |
| 08/29/2026 | 18:00:00 | 241 | 94 | 17:06:01 | 90 | 17:59:04 | 90 | 47 | 17:58:05 | 34 | 17:04:02 | 45.87 | 0 | 1.8 | 47 | 18 | 95 | 94 | 93 | 93 |
| 08/29/2026 | 19:00:00 | 241 | 90 | 18:00:00 | 79 | 18:59:05 | 79 | 76 | 18:59:05 | 46 | 18:00:01 | 74.79 | 0 | 1.1 | 22 | 2 | 93 | 92 | 92 | 92 |
| 08/29/2026 | 20:00:00 | 241 | 79 | 19:00:00 | 74 | 19:59:03 | 74 | 87 | 19:57:03 | 73 | 19:04:00 | 85.6 | 0 | 0.7 | 52 | 0 | 91 | 90 | 92 | 91 |
| 08/29/2026 | 21:00:00 | 241 | 76 | 20:16:05 | 73 | 20:35:04 | 73 | 89 | 20:35:01 | 76 | 20:16:00 | 88.3 | 0 | 0.9 | 32 | 0 | 89 | 88 | 90 | 90 |
| 08/29/2026 | 22:00:00 | 241 | 73 | 21:14:00 | 71 | 21:41:00 | 71 | 93 | 21:51:05 | 86 | 21:11:01 | 92.4 | 0 | 0.5 | 96 | 0 | 87 | 87 | 89 | 89 |
| 08/29/2026 | 23:00:00 | 241 | 73 | 22:13:01 | 71 | 22:29:03 | 71 | 92 | 22:00:01 | 86 | 22:13:01 | 91.6 | 0 | 0.5 | 40 | 0 | 86 | 85 | 88 | 88 |
| 08/30/2026 | 0:00:00 | 242 | 71 | 23:50:00 | 70 | 23:36:00 | 70 | 94 | 23:30:04 | 88 | 23:48:04 | 92.7 | 0 | 0.5 | 90 | 0 | 85 | 84 | 87 | 87 |
| 08/30/2026 | 1:00:00 | 242 | 71 | 0:07:04 | 70 | 0:54:01 | 70 | 95 | 0:26:03 | 92 | 0:42:02 | 92 | 0 | 0.4 | 89 | 0 | 84 | 83 | 87 | 86 |
| 08/30/2026 | 2:00:00 | 242 | 70 | 1:03:00 | 69 | 1:48:01 | 69 | 96 | 1:50:05 | 92 | 1:02:01 | 95.4 | 0 | 0.8 | 54 | 0 | 83 | 83 | 86 | 85 |
| 08/30/2026 | 3:00:00 | 242 | 70 | 2:55:00 | 69 | 2:26:00 | 70 | 96 | 2:30:03 | 94 | 2:52:04 | 94.4 | 0 | 1.1 | 29 | 0 | 82 | 82 | 85 | 85 |
| 08/30/2026 | 4:00:00 | 242 | 70 | 3:06:05 | 70 | 3:28:00 | 70 | 95 | 3:21:01 | 91 | 3:56:02 | 91.9 | 0 | 0.6 | 77 | 0 | 82 | 82 | 85 | 84 |
| 08/30/2026 | 5:00:00 | 242 | 70 | 4:22:05 | 69 | 4:49:02 | 69 | 95 | 4:53:01 | 92 | 4:19:05 | 95 | 0 | 0.6 | 78 | 0 | 81 | 81 | 84 | 84 |
| 08/30/2026 | 6:00:00 | 242 | 70 | 5:59:04 | 69 | 5:05:02 | 70 | 97 | 5:45:04 | 95 | 5:22:00 | 96.3 | 0 | 0.6 | 31 | 0 | 81 | 81 | 84 | 83 |
| 08/30/2026 | 7:00:00 | 242 | 77 | 6:59:04 | 70 | 6:00:05 | 77 | 96 | 6:00:01 | 87 | 7:00:00 | 86.6 | 0 | 2.0 | 142 | 8 | 80 | 81 | 83 | 83 |
| 08/30/2026 | 8:00:00 | 242 | 84 | 7:59:02 | 77 | 7:00:01 | 84 | 87 | 7:00:04 | 77 | 7:59:03 | 77.47 | 0 | 3.2 | 158 | 23 | 81 | 81 | 83 | 83 |
| 08/30/2026 | 9:00:00 | 242 | 89 | 8:57:02 | 84 | 8:00:00 | 88 | 78 | 8:02:04 | 68 | 8:51:01 | 70.39 | 0 | 3.2 | 185 | 41 | 82 | 83 | 83 | 83 |
| 08/30/2026 | 10:00:00 | 242 | 93 | 9:50:04 | 88 | 9:01:03 | 91 | 71 | 9:01:05 | 62 | 9:51:02 | 62.97 | 0 | 3.9 | 165 | 57 | 84 | 86 | 84 | 84 |
| 08/30/2026 | 11:00:00 | 242 | 94 | 10:31:03 | 91 | 10:03:01 | 93 | 65 | 10:03:05 | 60 | 10:58:05 | 61.22 | 0 | 5.5 | 135 | 70 | 88 | 90 | 85 | 86 |
| 08/30/2026 | 12:00:00 | 242 | 95 | 11:15:00 | 91 | 12:00:00 | 91 | 63 | 11:59:02 | 55 | 11:47:03 | 62.16 | 0 | 5.1 | 123 | 67 | 91 | 93 | 87 | 88 |
| 08/30/2026 | 13:00:00 | 242 | 95 | 12:52:01 | 91 | 12:00:03 | 94 | 63 | 12:01:01 | 53 | 12:55:03 | 55.32 | 0 | 5.3 | 104 | 59 | 93 | 94 | 88 | 89 |
| 08/30/2026 | 14:00:00 | 242 | 97 | 13:53:03 | 93 | 13:36:02 | 95 | 58 | 13:37:00 | 48 | 13:53:04 | 50.81 | 0 | 4.8 | 110 | 68 | 95 | 96 | 90 | 90 |
| 08/30/2026 | 15:00:00 | 242 | 97 | 14:59:02 | 94 | 14:10:01 | 97 | 54 | 14:11:01 | 46 | 14:58:04 | 47.17 | 0 | 4.9 | 111 | 54 | 96 | 96 | 91 | 92 |
| 08/30/2026 | 16:00:00 | 242 | 97 | 15:09:05 | 96 | 15:46:02 | 96 | 50 | 15:48:00 | 46 | 15:10:01 | 47.72 | 0 | 6.2 | 111 | 53 | 97 | 97 | 92 | 92 |
| 08/30/2026 | 17:00:00 | 242 | 97 | 16:17:05 | 95 | 16:58:05 | 95 | 52 | 16:59:03 | 47 | 16:01:05 | 52.02 | 0 | 5.4 | 120 | 34 | 97 | 96 | 93 | 93 |
| 08/30/2026 | 18:00:00 | 242 | 95 | 17:00:00 | 92 | 18:00:00 | 92 | 58 | 17:59:03 | 50 | 17:06:01 | 57.38 | 0 | 5.4 | 113 | 16 | 96 | 95 | 93 | 93 |
| 08/30/2026 | 19:00:00 | 242 | 92 | 18:00:02 | 85 | 18:59:02 | 85 | 70 | 19:00:00 | 57 | 18:00:00 | 69.54 | 0 | 3.0 | 118 | 2 | 94 | 93 | 93 | 93 |
| 08/30/2026 | 20:00:00 | 242 | 85 | 19:00:01 | 81 | 19:59:05 | 81 | 81 | 19:59:00 | 69 | 19:00:02 | 80.2 | 0 | 0.8 | 115 | 0 | 92 | 92 | 92 | 92 |
| 08/30/2026 | 21:00:00 | 242 | 81 | 20:02:02 | 78 | 20:52:03 | 78 | 87 | 20:48:05 | 79 | 20:01:05 | 85.6 | 0 | 0.7 | 160 | 0 | 91 | 90 | 91 | 91 |
| 08/30/2026 | 22:00:00 | 242 | 78 | 21:00:00 | 77 | 21:58:02 | 77 | 89 | 21:52:05 | 86 | 21:00:01 | 88 | 0 | 0.5 | 201 | 0 | 89 | 89 | 90 | 90 |
| 08/30/2026 | 23:00:00 | 242 | 78 | 22:47:01 | 76 | 22:59:04 | 76 | 90 | 22:59:03 | 86 | 22:42:03 | 89.5 | 0 | 0.7 | 64 | 0 | 88 | 88 | 90 | 89 |
| 08/31/2026 | 0:00:00 | 243 | 77 | 23:01:03 | 75 | 23:35:02 | 75 | 93 | 23:57:04 | 89 | 23:01:05 | 92.5 | 0 | 0.8 | 51 | 0 | 87 | 87 | 89 | 88 |
| 08/31/2026 | 1:00:00 | 243 | 76 | 0:08:00 | 74 | 0:44:05 | 74 | 95 | 0:47:01 | 92 | 0:12:00 | 94.7 | 0 | 0.9 | 69 | 0 | 86 | 86 | 88 | 88 |
| 08/31/2026 | 2:00:00 | 243 | 74 | 1:49:02 | 74 | 1:35:03 | 74 | 95 | 1:40:05 | 94 | 1:17:05 | 94.8 | 0 | 0.5 | 87 | 0 | 85 | 85 | 87 | 87 |
| 08/31/2026 | 3:00:00 | 243 | 74 | 2:00:00 | 73 | 2:51:01 | 73 | 96 | 2:54:02 | 95 | 2:00:00 | 95.9 | 0 | 0.5 | 75 | 0 | 85 | 84 | 87 | 87 |
| 08/31/2026 | 4:00:00 | 243 | 74 | 3:09:03 | 73 | 3:44:01 | 73 | 96 | 3:00:01 | 95 | 3:16:03 | 95.1 | 0 | 0.8 | 106 | 0 | 84 | 84 | 86 | 86 |
| 08/31/2026 | 5:00:00 | 243 | 73 | 4:07:01 | 72 | 4:44:04 | 72 | 96 | 4:48:02 | 95 | 4:09:02 | 95.9 | 0 | 0.5 | 123 | 0 | 83 | 83 | 86 | 85 |
| 08/31/2026 | 6:00:00 | 243 | 72 | 5:00:02 | 72 | 5:36:05 | 72 | 98 | 5:45:04 | 96 | 5:07:00 | 97.1 | 0 | 0.6 | 62 | 0 | 83 | 83 | 85 | 85 |
| 08/31/2026 | 7:00:00 | 243 | 79 | 6:59:04 | 72 | 6:00:00 | 79 | 97 | 6:03:05 | 87 | 6:59:03 | 87 | 0 | 0.7 | 71 | 8 | 83 | 83 | 85 | 85 |
| 08/31/2026 | 8:00:00 | 243 | 86 | 7:59:00 | 79 | 7:00:00 | 85 | 87 | 7:00:05 | 75 | 7:59:04 | 75.51 | 0 | 2.4 | 133 | 24 | 83 | 83 | 85 | 84 |
| 08/31/2026 | 9:00:00 | 243 | 90 | 8:58:02 | 85 | 8:04:01 | 90 | 77 | 8:04:02 | 66 | 8:58:03 | 67.34 | 0 | 2.0 | 186 | 41 | 84 | 84 | 85 | 85 |
| 08/31/2026 | 10:00:00 | 243 | 93 | 9:53:02 | 88 | 9:07:01 | 90 | 71 | 9:05:01 | 60 | 9:53:03 | 63.55 | 0 | 3.0 | 258 | 53 | 86 | 88 | 85 | 85 |
| 08/31/2026 | 11:00:00 | 243 | 94 | 10:59:05 | 90 | 10:01:01 | 94 | 64 | 10:01:05 | 58 | 10:24:01 | 58.44 | 0 | 2.3 | 175 | 50 | 89 | 90 | 86 | 87 |
| 08/31/2026 | 12:00:00 | 243 | 96 | 11:57:05 | 92 | 11:21:01 | 96 | 61 | 11:23:00 | 53 | 11:58:03 | 54.36 | 0 | 2.6 | 165 | 65 | 91 | 92 | 88 | 88 |
| 08/31/2026 | 13:00:00 | 243 | 97 | 12:30:03 | 94 | 12:05:01 | 95 | 58 | 12:51:00 | 52 | 12:56:02 | 54.04 | 0 | 3.2 | 323 | 70 | 94 | 96 | 89 | 90 |
| 08/31/2026 | 14:00:00 | 243 | 98 | 13:57:00 | 93 | 13:05:04 | 97 | 56 | 13:04:00 | 47 | 13:57:01 | 49.07 | 0 | 4.3 | 68 | 65 | 96 | 97 | 91 | 92 |
| 08/31/2026 | 15:00:00 | 243 | 98 | 14:38:00 | 96 | 14:44:02 | 98 | 51 | 14:46:04 | 46 | 14:01:04 | 48.81 | 0 | 4.3 | 74 | 62 | 97 | 98 | 92 | 93 |
| 08/31/2026 | 16:00:00 | 243 | 99 | 15:08:05 | 96 | 15:31:03 | 96 | 54 | 15:32:00 | 48 | 15:04:04 | 51.86 | 0 | 3.9 | 87 | 47 | 98 | 98 | 93 | 94 |
| 08/31/2026 | 17:00:00 | 243 | 98 | 16:39:05 | 96 | 16:59:05 | 96 | 54 | 16:59:05 | 49 | 16:49:00 | 53.99 | 0 | 4.4 | 78 | 38 | 98 | 98 | 94 | 94 |
| 08/31/2026 | 18:00:00 | 243 | 96 | 17:06:00 | 94 | 17:59:03 | 94 | 58 | 17:59:04 | 52 | 17:08:05 | 57.45 | 0 | 4.5 | 81 | 21 | 98 | 97 | 94 | 94 |
| 08/31/2026 | 19:00:00 | 243 | 94 | 18:00:00 | 88 | 19:00:00 | 88 | 71 | 19:00:00 | 57 | 18:01:05 | 70.72 | 0 | 2.3 | 95 | 2 | 96 | 95 | 94 | 94 |
| 08/31/2026 | 20:00:00 | 243 | 88 | 19:00:01 | 83 | 19:59:01 | 83 | 81 | 19:55:00 | 71 | 19:00:02 | 80.7 | 0 | 0.8 | 111 | 0 | 95 | 94 | 94 | 93 |
| 08/31/2026 | 21:00:00 | 243 | 83 | 20:00:01 | 81 | 21:00:00 | 81 | 87 | 21:00:00 | 81 | 20:00:01 | 86.5 | 0 | 0.7 | 152 | 0 | 93 | 92 | 93 | 93 |
| 08/31/2026 | 22:00:00 | 243 | 81 | 21:00:00 | 79 | 21:53:05 | 79 | 90 | 21:48:05 | 87 | 21:00:00 | 89.8 | 0 | 1.1 | 34 | 0 | 91 | 91 | 92 | 92 |
| 08/31/2026 | 23:00:00 | 243 | 80 | 22:11:03 | 78 | 22:59:03 | 78 | 91 | 22:26:02 | 89 | 22:15:00 | 90 | 0 | 0.4 | 54 | 0 | 90 | 90 | 91 | 91 |
| 09/01/2026 | 0:00:00 | 244 | 79 | 23:12:01 | 77 | 23:41:00 | 77 | 92 | 23:42:00 | 90 | 23:22:00 | 92 | 0 | 0.6 | 89 | 0 | 89 | 89 | 90 | 90 |
| 09/01/2026 | 1:00:00 | 244 | 77 | 0:00:01 | 76 | 0:50:03 | 76 | 94 | 0:53:01 | 92 | 0:00:02 | 93.3 | 0 | 0.7 | 81 | 0 | 88 | 88 | 90 | 89 |
| 09/01/2026 | 2:00:00 | 244 | 76 | 1:34:00 | 75 | 1:57:04 | 75 | 95 | 1:59:05 | 93 | 1:00:01 | 95 | 0 | 1.3 | 66 | 0 | 87 | 87 | 89 | 89 |
| 09/01/2026 | 3:00:00 | 244 | 75 | 2:00:04 | 74 | 2:59:00 | 74 | 96 | 2:57:03 | 95 | 2:01:04 | 96.3 | 0 | 0.9 | 67 | 0 | 86 | 86 | 88 | 88 |
| 09/01/2026 | 4:00:00 | 244 | 75 | 3:28:03 | 74 | 3:59:03 | 74 | 97 | 3:49:01 | 95 | 3:33:05 | 96.6 | 0 | 0.5 | 47 | 0 | 86 | 85 | 88 | 88 |
| 09/01/2026 | 5:00:00 | 244 | 74 | 4:16:05 | 73 | 4:55:04 | 73 | 97 | 4:59:03 | 97 | 4:20:04 | 97.4 | 0 | 0.8 | 96 | 0 | 85 | 85 | 87 | 87 |
| 09/01/2026 | 6:00:00 | 244 | 74 | 5:02:05 | 73 | 5:44:01 | 73 | 98 | 5:59:05 | 97 | 5:19:05 | 98.1 | 0 | 0.1 | 48 | 0 | 85 | 84 | 87 | 87 |
| 09/01/2026 | 7:00:00 | 244 | 80 | 6:59:05 | 73 | 6:00:00 | 80 | 98 | 6:03:01 | 86 | 6:57:02 | 86.4 | 0 | 0.5 | 73 | 8 | 84 | 84 | 86 | 86 |
| 09/01/2026 | 8:00:00 | 244 | 87 | 7:52:05 | 80 | 7:00:00 | 87 | 87 | 7:01:00 | 73 | 7:53:02 | 73.43 | 0 | 1.8 | 153 | 24 | 84 | 85 | 86 | 86 |
| 09/01/2026 | 9:00:00 | 244 | 89 | 9:00:00 | 87 | 8:00:00 | 89 | 74 | 8:49:02 | 70 | 8:44:04 | 70.7 | 0 | 2.1 | 250 | 41 | 85 | 86 | 86 | 86 |
| 09/01/2026 | 10:00:00 | 244 | 93 | 10:00:00 | 88 | 9:08:05 | 93 | 71 | 9:00:02 | 62 | 9:58:01 | 63.71 | 0 | 2.7 | 302 | 57 | 87 | 89 | 86 | 87 |
| 09/01/2026 | 11:00:00 | 244 | 96 | 10:46:03 | 92 | 10:03:02 | 94 | 63 | 10:00:00 | 56 | 10:47:00 | 58.66 | 0 | 3.5 | 93 | 69 | 90 | 92 | 88 | 88 |
| 09/01/2026 | 12:00:00 | 244 | 97 | 11:50:01 | 94 | 11:14:01 | 97 | 59 | 11:00:03 | 51 | 11:41:01 | 52.92 | 0 | 4.0 | 81 | 76 | 94 | 95 | 89 | 90 |
| 09/01/2026 | 13:00:00 | 244 | 99 | 12:35:01 | 96 | 12:10:02 | 98 | 55 | 12:12:00 | 49 | 12:57:01 | 50.08 | 0 | 3.7 | 79 | 77 | 96 | 97 | 91 | 92 |
| 09/01/2026 | 14:00:00 | 244 | 100 | 13:45:05 | 97 | 13:55:00 | 100 | 52 | 13:02:04 | 46 | 13:59:04 | 47.29 | 0 | 3.7 | 79 | 75 | 98 | 99 | 93 | 93 |
| 09/01/2026 | 15:00:00 | 244 | 101 | 14:02:04 | 95 | 14:27:00 | 99 | 53 | 14:23:03 | 45 | 14:42:02 | 49.11 | 0 | 4.6 | 115 | 50 | 100 | 100 | 94 | 95 |
| 09/01/2026 | 16:00:00 | 244 | 100 | 15:01:05 | 95 | 15:52:00 | 98 | 54 | 15:50:03 | 46 | 15:27:03 | 48.41 | 0 | 5.0 | 75 | 46 | 100 | 100 | 95 | 95 |
| 09/01/2026 | 17:00:00 | 244 | 98 | 16:00:03 | 96 | 16:57:01 | 96 | 54 | 16:58:05 | 47 | 16:21:04 | 53.42 | 0 | 4.3 | 82 | 37 | 100 | 99 | 96 | 96 |
| 09/01/2026 | 18:00:00 | 244 | 96 | 17:05:05 | 95 | 17:59:03 | 95 | 57 | 17:59:02 | 51 | 17:15:00 | 56.62 | 0 | 4.1 | 89 | 17 | 99 | 98 | 96 | 96 |
| 09/01/2026 | 19:00:00 | 244 | 95 | 18:00:00 | 88 | 18:59:05 | 88 | 69 | 19:00:00 | 56 | 18:05:05 | 68.71 | 0 | 3.2 | 93 | 2 | 97 | 96 | 96 | 95 |
| 09/01/2026 | 20:00:00 | 244 | 88 | 19:00:00 | 84 | 19:59:03 | 84 | 78 | 19:48:03 | 69 | 19:00:03 | 76.48 | 0 | 1.0 | 111 | 0 | 95 | 95 | 95 | 95 |
| 09/01/2026 | 21:00:00 | 244 | 84 | 20:01:00 | 82 | 20:44:03 | 83 | 84 | 20:42:02 | 76 | 20:00:02 | 81.4 | 0 | 0.2 | 43 | 0 | 94 | 93 | 94 | 94 |
| 09/01/2026 | 22:00:00 | 244 | 83 | 21:00:02 | 80 | 21:39:00 | 80 | 87 | 21:59:05 | 81 | 21:00:00 | 86.7 | 0 | 0.9 | 194 | 0 | 92 | 92 | 93 | 93 |
| 09/01/2026 | 23:00:00 | 244 | 80 | 22:00:01 | 79 | 22:41:05 | 79 | 89 | 22:27:03 | 87 | 22:00:01 | 87.6 | 0 | 0.8 | 190 | 0 | 91 | 91 | 92 | 92 |
| 09/02/2026 | 0:00:00 | 245 | 79 | 23:03:02 | 78 | 23:56:03 | 78 | 91 | 23:40:04 | 87 | 23:03:01 | 90.5 | 0 | 0.6 | 71 | 0 | 90 | 90 | 92 | 91 |
| 09/02/2026 | 1:00:00 | 245 | 78 | 0:04:05 | 76 | 0:51:02 | 76 | 93 | 0:49:04 | 90 | 0:17:02 | 92.9 | 0 | 1.0 | 82 | 0 | 89 | 89 | 91 | 90 |
| 09/02/2026 | 2:00:00 | 245 | 76 | 1:00:00 | 75 | 1:59:05 | 76 | 94 | 2:00:00 | 93 | 1:00:01 | 94.4 | 0 | 0.6 | 92 | 0 | 88 | 88 | 90 | 90 |
| Average | 84.16 | 81.21 | 82.69 | 79.48 | 72.63 | 76.07 | 0.01 | 2.41 | 23.04 | 88.42 | 88.45 | 88.24 | 88.25 | |||||||
| Total | 1.43 |